Time;durP1;ratioP1;P1;durP2;ratioP2;P2;SDS_P1;SDS_P2;PMS_P1;PMS_P2;Temp;Humidity;BMP_temperature;BMP_pressure;BME280_temperature;BME280_humidity;BME280_pressure;Samples;Min_cycle;Max_cycle;Signal;HPM_P1;HPM_P2
2024/04/20 00:01:06;;;;;;;;;;;;;;;5.51;76.54;97144.31;5401890;26;19928;-70
2024/04/20 00:03:56;;;;;;;;;;;;;;;5.48;75.85;97144.09;5429280;26;19943;-70
2024/04/20 00:06:47;;;;;;;;;;;;;;;5.57;76.06;97145.00;5440784;26;19940;-71
2024/04/20 00:09:37;;;;;;;;;;;;;;;5.44;75.88;97149.28;5424441;26;20296;-71
2024/04/20 00:12:27;;;;;;;;;;;;;;;5.40;76.73;97142.09;5431003;26;19936;-70
2024/04/20 00:15:19;;;;;;;;;;;;;;;5.34;76.62;97148.66;5438059;26;19928;-71
2024/04/20 00:18:09;;;;;;;;;;;;;;;5.36;76.96;97141.09;5437148;26;20334;-71
2024/04/20 00:20:59;;;;;;;;;;;;;;;5.46;76.86;97147.09;5418192;26;20696;-70
2024/04/20 00:23:49;;;;;;;;;;;;;;;5.43;76.65;97147.69;5431873;26;19929;-70
2024/04/20 00:26:40;;;;;;;;;;;;;;;5.32;76.42;97156.22;5433156;26;19929;-71
2024/04/20 00:29:30;;;;;;;;;;;;;;;5.26;77.12;97155.50;5435120;26;20379;-70
2024/04/20 00:32:22;;;;;;;;;;;;;;;5.33;76.32;97152.47;5412918;26;19937;-71
2024/04/20 00:35:16;;;;;;;;;;;;;;;5.32;76.60;97156.22;5422032;26;20264;-71
2024/04/20 00:38:07;;;;;;;;;;;;;;;5.43;76.08;97163.88;5440555;26;19956;-71
2024/04/20 00:40:57;;;;;;;;;;;;;;;5.46;75.70;97155.16;5438319;26;19960;-71
2024/04/20 00:43:47;;;;;;;;;;;;;;;5.39;76.40;97168.25;5440244;26;19935;-70
2024/04/20 00:46:37;;;;;;;;;;;;;;;5.52;76.54;97163.97;5399098;26;19937;-71
2024/04/20 00:49:30;;;;;;;;;;;;;;;5.37;76.97;97164.22;5436790;26;20107;-71
2024/04/20 00:52:20;;;;;;;;;;;;;;;5.32;76.54;97167.00;5440304;26;19974;-70
2024/04/20 00:55:10;;;;;;;;;;;;;;;5.33;76.67;97164.03;5437053;26;20375;-71
2024/04/20 00:58:00;;;;;;;;;;;;;;;5.22;77.15;97176.88;5443365;26;19940;-70
2024/04/20 01:00:50;;;;;;;;;;;;;;;5.18;77.28;97181.25;5433377;26;19936;-71
2024/04/20 01:03:40;;;;;;;;;;;;;;;5.29;76.52;97175.69;5429890;26;19929;-70
2024/04/20 01:06:33;;;;;;;;;;;;;;;5.35;76.65;97182.59;5428795;26;19928;-70
2024/04/20 01:09:23;;;;;;;;;;;;;;;5.30;76.13;97178.06;5444983;26;20277;-71
2024/04/20 01:12:13;;;;;;;;;;;;;;;5.24;77.49;97188.13;5438517;26;19936;-71
2024/04/20 01:15:03;;;;;;;;;;;;;;;5.28;77.30;97201.81;5409254;26;19955;-70
2024/04/20 01:17:53;;;;;;;;;;;;;;;5.25;77.61;97195.13;5427924;26;20564;-71
2024/04/20 01:20:43;;;;;;;;;;;;;;;5.12;78.33;97195.09;5433892;26;19929;-70
2024/04/20 01:23:35;;;;;;;;;;;;;;;5.12;77.87;97201.25;5438968;26;19936;-71
2024/04/20 01:26:28;;;;;;;;;;;;;;;5.29;76.94;97189.94;5441288;26;20564;-72
2024/04/20 01:29:19;;;;;;;;;;;;;;;5.28;77.36;97203.72;5438192;26;19933;-72
2024/04/20 01:32:09;;;;;;;;;;;;;;;5.15;77.26;97203.34;5435705;26;19928;-72
2024/04/20 01:34:59;;;;;;;;;;;;;;;5.25;77.83;97216.66;5440965;26;19936;-72
2024/04/20 01:37:48;;;;;;;;;;;;;;;5.25;76.96;97222.03;5433981;26;19932;-72
2024/04/20 01:40:38;;;;;;;;;;;;;;;5.32;77.07;97221.66;5443169;26;20005;-71
2024/04/20 01:43:31;;;;;;;;;;;;;;;5.14;78.11;97220.59;5442207;26;19940;-72
2024/04/20 01:46:21;;;;;;;;;;;;;;;5.14;77.75;97236.75;5434282;26;19937;-72
2024/04/20 01:49:11;;;;;;;;;;;;;;;5.17;77.43;97241.56;5441641;26;19968;-72
2024/04/20 01:52:01;;;;;;;;;;;;;;;5.25;76.86;97238.22;5437807;26;19928;-73
2024/04/20 01:54:51;;;;;;;;;;;;;;;5.19;77.53;97239.38;5439046;26;19960;-71
2024/04/20 01:57:41;;;;;;;;;;;;;;;5.16;78.01;97234.56;5433987;26;20627;-72
2024/04/20 02:00:34;;;;;;;;;;;;;;;5.17;77.99;97244.28;5414974;26;19940;-73
2024/04/20 02:03:24;;;;;;;;;;;;;;;5.12;78.47;97244.34;5418621;26;19928;-72
2024/04/20 02:06:15;;;;;;;;;;;;;;;5.19;77.58;97244.75;5432558;26;19928;-72
2024/04/20 02:09:05;;;;;;;;;;;;;;;5.25;77.66;97246.28;5408564;26;20321;-74
2024/04/20 02:11:55;;;;;;;;;;;;;;;5.11;78.15;97252.69;5404159;26;19929;-72
2024/04/20 02:14:45;;;;;;;;;;;;;;;5.04;78.34;97250.38;5429867;26;19929;-72
2024/04/20 02:17:38;;;;;;;;;;;;;;;5.22;77.94;97263.03;5437559;26;20341;-73
2024/04/20 02:20:27;;;;;;;;;;;;;;;5.18;77.47;97264.72;5441930;26;20400;-73
2024/04/20 02:23:17;;;;;;;;;;;;;;;5.17;77.70;97262.31;5450519;26;20749;-72
2024/04/20 02:26:07;;;;;;;;;;;;;;;5.18;77.97;97275.47;5434339;26;19946;-73
2024/04/20 02:29:00;;;;;;;;;;;;;;;5.16;77.62;97277.66;5437173;26;19940;-73
2024/04/20 02:31:50;;;;;;;;;;;;;;;5.12;77.52;97273.97;5406530;26;20413;-73
2024/04/20 02:34:44;;;;;;;;;;;;;;;5.23;76.84;97288.06;5439524;26;20360;-71
2024/04/20 02:37:34;;;;;;;;;;;;;;;5.10;77.24;97291.47;5441329;26;19943;-71
2024/04/20 02:40:24;;;;;;;;;;;;;;;5.20;77.07;97291.34;5436857;26;19936;-71
2024/04/20 02:43:14;;;;;;;;;;;;;;;5.08;76.91;97296.38;5443346;26;20368;-71
2024/04/20 02:46:04;;;;;;;;;;;;;;;5.07;77.43;97305.53;5429580;26;19941;-72
2024/04/20 02:48:53;;;;;;;;;;;;;;;5.16;76.89;97299.19;5435334;26;19936;-71
2024/04/20 02:51:46;;;;;;;;;;;;;;;5.12;76.86;97300.88;5438260;26;20376;-71
2024/04/20 02:54:36;;;;;;;;;;;;;;;5.19;76.85;97309.41;5444618;26;19929;-71
2024/04/20 02:57:26;;;;;;;;;;;;;;;5.12;76.42;97314.34;5450006;26;20257;-71
2024/04/20 03:00:16;;;;;;;;;;;;;;;5.08;76.59;97307.13;5441186;26;20268;-71
2024/04/20 03:03:06;;;;;;;;;;;;;;;5.09;76.66;97308.72;5403074;26;19935;-72
2024/04/20 03:05:56;;;;;;;;;;;;;;;5.13;76.69;97307.06;5442156;26;20990;-72
2024/04/20 03:08:48;;;;;;;;;;;;;;;4.98;77.43;97305.38;5445611;26;19936;-70
2024/04/20 03:11:38;;;;;;;;;;;;;;;5.00;77.47;97305.88;5429783;26;19928;-72
2024/04/20 03:14:28;;;;;;;;;;;;;;;5.01;77.18;97318.28;5408430;26;20269;-72
2024/04/20 03:17:18;;;;;;;;;;;;;;;5.01;77.44;97323.66;5437999;26;20360;-72
2024/04/20 03:20:08;;;;;;;;;;;;;;;4.97;77.41;97323.41;5437398;26;19935;-71
2024/04/20 03:22:58;;;;;;;;;;;;;;;4.96;77.50;97326.41;5397612;26;19928;-70
2024/04/20 03:25:53;;;;;;;;;;;;;;;4.93;77.44;97335.06;5409695;26;19935;-70
2024/04/20 03:28:44;;;;;;;;;;;;;;;4.90;78.02;97335.63;5438025;26;19940;-70
2024/04/20 03:31:33;;;;;;;;;;;;;;;5.05;77.33;97345.41;5440194;26;19932;-70
2024/04/20 03:34:24;;;;;;;;;;;;;;;5.00;77.32;97343.56;5414557;26;19940;-70
2024/04/20 03:37:19;;;;;;;;;;;;;;;5.01;77.19;97350.56;5442416;26;19929;-70
2024/04/20 03:40:09;;;;;;;;;;;;;;;4.89;77.63;97348.28;5441009;26;20080;-70
2024/04/20 03:43:02;;;;;;;;;;;;;;;4.94;77.49;97358.19;5435619;26;19948;-70
2024/04/20 03:45:53;;;;;;;;;;;;;;;4.99;77.27;97364.31;5441606;26;19974;-70
2024/04/20 03:48:43;;;;;;;;;;;;;;;5.04;76.66;97360.75;5448513;26;19937;-69
2024/04/20 03:51:35;;;;;;;;;;;;;;;4.93;77.24;97370.03;5446337;26;19929;-68
2024/04/20 03:54:25;;;;;;;;;;;;;;;4.90;77.41;97376.81;5443656;26;19932;-70
2024/04/20 03:57:15;;;;;;;;;;;;;;;5.02;76.98;97371.03;5439208;26;19939;-70
2024/04/20 04:00:11;;;;;;;;;;;;;;;5.03;77.06;97369.94;5432471;26;20345;-70
2024/04/20 04:03:01;;;;;;;;;;;;;;;4.97;76.65;97371.88;5428560;26;19929;-70
2024/04/20 04:05:50;;;;;;;;;;;;;;;4.87;77.09;97381.97;5447117;26;19928;-70
2024/04/20 04:08:40;;;;;;;;;;;;;;;4.93;76.32;97387.00;5445126;26;19928;-70
2024/04/20 04:11:30;;;;;;;;;;;;;;;4.93;76.36;97387.00;5445334;26;19974;-70
2024/04/20 04:14:20;;;;;;;;;;;;;;;4.98;76.04;97396.91;5424990;26;19929;-70
2024/04/20 04:17:12;;;;;;;;;;;;;;;5.02;75.54;97406.03;5438959;26;19935;-71
2024/04/20 04:20:04;;;;;;;;;;;;;;;5.01;75.62;97396.34;5424614;26;19949;-71
2024/04/20 04:22:54;;;;;;;;;;;;;;;5.00;76.12;97405.47;5443131;26;19935;-70
2024/04/20 04:25:44;;;;;;;;;;;;;;;4.98;76.23;97404.97;5442792;26;20125;-71
2024/04/20 04:28:34;;;;;;;;;;;;;;;5.09;75.71;97400.28;5418209;26;19935;-70
2024/04/20 04:31:25;;;;;;;;;;;;;;;5.13;75.09;97418.25;5436022;26;19935;-71
2024/04/20 04:34:18;;;;;;;;;;;;;;;5.15;75.79;97418.75;5436261;26;20301;-72
2024/04/20 04:37:13;;;;;;;;;;;;;;;4.98;76.12;97426.53;5445689;26;19935;-71
2024/04/20 04:40:05;;;;;;;;;;;;;;;5.13;75.07;97426.34;5412515;26;20664;-72
2024/04/20 04:42:55;;;;;;;;;;;;;;;5.13;75.21;97437.13;5428207;26;19940;-71
2024/04/20 04:45:45;;;;;;;;;;;;;;;5.10;75.21;97440.38;5440365;26;19956;-71
2024/04/20 04:48:35;;;;;;;;;;;;;;;5.06;75.50;97438.53;5410353;26;20364;-72
2024/04/20 04:51:28;;;;;;;;;;;;;;;5.03;75.44;97439.91;5436759;26;20276;-72
2024/04/20 04:54:18;;;;;;;;;;;;;;;5.17;74.87;97446.22;5403493;26;19928;-73
2024/04/20 04:57:08;;;;;;;;;;;;;;;5.05;75.08;97458.47;5446549;26;19940;-72
2024/04/20 04:59:57;;;;;;;;;;;;;;;5.14;74.95;97462.94;5440921;26;19947;-71
2024/04/20 05:02:47;;;;;;;;;;;;;;;5.07;74.98;97462.50;5416462;26;19935;-71
2024/04/20 05:05:37;;;;;;;;;;;;;;;5.17;74.77;97470.47;5446660;26;19939;-71
2024/04/20 05:08:29;;;;;;;;;;;;;;;4.94;75.23;97473.94;5412730;26;19957;-71
2024/04/20 05:11:20;;;;;;;;;;;;;;;5.12;75.27;97481.28;5444644;26;19928;-72
2024/04/20 05:14:10;;;;;;;;;;;;;;;5.01;75.82;97474.41;5442922;26;19936;-73
2024/04/20 05:17:00;;;;;;;;;;;;;;;5.14;75.00;97484.50;5423637;26;19935;-72
2024/04/20 05:19:50;;;;;;;;;;;;;;;5.21;74.47;97493.03;5424162;26;19933;-71
2024/04/20 05:22:40;;;;;;;;;;;;;;;5.22;74.57;97493.84;5449083;26;19961;-72
2024/04/20 05:25:33;;;;;;;;;;;;;;;5.31;73.88;97494.00;5432464;26;19936;-73
2024/04/20 05:28:24;;;;;;;;;;;;;;;5.25;73.81;97502.13;5446420;26;19960;-71
2024/04/20 05:31:14;;;;;;;;;;;;;;;5.19;73.81;97500.59;5425031;26;19943;-72
2024/04/20 05:34:04;;;;;;;;;;;;;;;5.08;73.74;97501.00;5423322;26;19940;-73
2024/04/20 05:36:55;;;;;;;;;;;;;;;5.09;73.34;97514.16;5418602;26;19929;-69
2024/04/20 05:39:47;;;;;;;;;;;;;;;4.95;73.86;97516.75;5429065;26;19928;-71
2024/04/20 05:42:43;;;;;;;;;;;;;;;5.14;73.17;97524.88;5446885;26;19928;-79
2024/04/20 05:45:33;;;;;;;;;;;;;;;5.15;73.11;97531.88;5449995;26;19935;-95
2024/04/20 05:48:24;;;;;;;;;;;;;;;5.30;72.40;97535.50;5472486;26;19935;-75
2024/04/20 05:51:15;;;;;;;;;;;;;;;5.30;72.29;97543.56;5444385;26;19932;-73
2024/04/20 05:54:05;;;;;;;;;;;;;;;5.25;72.68;97542.53;5442238;26;20401;-86
2024/04/20 05:56:54;;;;;;;;;;;;;;;5.17;72.18;97556.63;5449797;26;19928;-72
2024/04/20 05:59:47;;;;;;;;;;;;;;;5.23;72.51;97558.19;5423194;26;19961;-70
2024/04/20 06:02:37;;;;;;;;;;;;;;;5.15;72.44;97561.50;5430470;26;19933;-73
2024/04/20 06:05:27;;;;;;;;;;;;;;;5.13;72.67;97566.38;5415881;26;19965;-73
2024/04/20 06:08:17;;;;;;;;;;;;;;;5.26;72.21;97571.06;5417619;26;19928;-72
2024/04/20 06:11:09;;;;;;;;;;;;;;;5.29;71.90;97574.31;5416885;26;19929;-72
2024/04/20 06:13:58;;;;;;;;;;;;;;;5.30;73.05;97578.59;5401241;26;20332;-71
2024/04/20 06:16:54;;;;;;;;;;;;;;;5.14;72.70;97586.00;5419150;26;20530;-77
2024/04/20 06:19:44;;;;;;;;;;;;;;;5.14;72.82;97597.59;5445471;26;19929;-69
2024/04/20 06:22:35;;;;;;;;;;;;;;;5.17;72.86;97582.78;5424104;26;19944;-71
2024/04/20 06:25:25;;;;;;;;;;;;;;;5.13;73.18;97587.91;5450457;26;19934;-74
2024/04/20 06:28:15;;;;;;;;;;;;;;;5.19;72.60;97597.53;5455013;26;19936;-72
2024/04/20 06:31:06;;;;;;;;;;;;;;;5.25;72.44;97588.31;5423227;26;19936;-85
2024/04/20 06:33:59;;;;;;;;;;;;;;;5.29;71.70;97595.84;5442655;26;19928;-71
2024/04/20 06:36:48;;;;;;;;;;;;;;;5.08;72.20;97606.81;5435036;26;20282;-72
2024/04/20 06:39:41;;;;;;;;;;;;;;;5.22;71.71;97605.06;5448955;26;19935;-72
2024/04/20 06:42:32;;;;;;;;;;;;;;;5.24;71.66;97608.25;5447662;26;19997;-79
2024/04/20 06:45:23;;;;;;;;;;;;;;;5.31;72.19;97623.28;5424401;26;20267;-77
2024/04/20 06:48:13;;;;;;;;;;;;;;;5.42;71.55;97625.59;5418763;26;19936;-77
2024/04/20 06:51:06;;;;;;;;;;;;;;;5.53;71.11;97631.69;5434346;26;19936;-78
2024/04/20 06:53:56;;;;;;;;;;;;;;;5.49;70.24;97638.75;5441428;26;20298;-76
2024/04/20 06:56:46;;;;;;;;;;;;;;;5.42;70.39;97624.78;5449696;26;19936;-80
2024/04/20 06:59:36;;;;;;;;;;;;;;;5.44;69.89;97639.59;5447657;26;19936;-72
2024/04/20 07:02:26;;;;;;;;;;;;;;;5.40;70.41;97637.75;5433460;26;20470;-74
2024/04/20 07:05:15;;;;;;;;;;;;;;;5.49;70.27;97647.63;5410456;26;19978;-73
2024/04/20 07:08:10;;;;;;;;;;;;;;;5.58;69.70;97652.38;5419279;26;20293;-72
2024/04/20 07:11:01;;;;;;;;;;;;;;;5.71;69.64;97654.44;5425992;26;19928;-72
2024/04/20 07:13:51;;;;;;;;;;;;;;;5.74;69.69;97664.63;5422069;26;20272;-72
2024/04/20 07:16:41;;;;;;;;;;;;;;;5.66;69.27;97667.94;5432789;26;19928;-74
2024/04/20 07:19:31;;;;;;;;;;;;;;;5.64;68.60;97670.91;5446219;26;20259;-72
2024/04/20 07:22:21;;;;;;;;;;;;;;;5.55;68.76;97669.94;5446732;26;19998;-73
2024/04/20 07:25:13;;;;;;;;;;;;;;;5.52;69.25;97668.59;5433250;26;19929;-73
2024/04/20 07:28:03;;;;;;;;;;;;;;;5.49;69.27;97673.78;5419352;26;20368;-72
2024/04/20 07:30:53;;;;;;;;;;;;;;;5.47;69.53;97676.72;5411684;26;19944;-73
2024/04/20 07:33:43;;;;;;;;;;;;;;;5.56;69.25;97687.72;5446032;26;19996;-73
2024/04/20 07:36:33;;;;;;;;;;;;;;;5.50;68.87;97692.34;5445950;26;19939;-74
2024/04/20 07:39:23;;;;;;;;;;;;;;;5.56;68.98;97701.19;5450344;26;20271;-73
2024/04/20 07:42:16;;;;;;;;;;;;;;;5.56;68.67;97703.09;5423211;26;19943;-73
2024/04/20 07:45:06;;;;;;;;;;;;;;;5.61;68.67;97716.50;5421700;26;19935;-72
2024/04/20 07:47:56;;;;;;;;;;;;;;;5.56;68.37;97717.34;5428843;26;19929;-73
2024/04/20 07:50:46;;;;;;;;;;;;;;;5.71;67.93;97714.53;5432829;26;19928;-73
2024/04/20 07:53:36;;;;;;;;;;;;;;;5.75;67.20;97729.03;5447063;26;19936;-76
2024/04/20 07:56:29;;;;;;;;;;;;;;;5.67;67.63;97732.34;5421632;26;19928;-78
2024/04/20 07:59:21;;;;;;;;;;;;;;;5.73;67.42;97731.19;5420258;26;19995;-77
2024/04/20 08:02:11;;;;;;;;;;;;;;;5.70;67.46;97745.25;5439357;26;19935;-75
2024/04/20 08:05:01;;;;;;;;;;;;;;;5.81;66.58;97745.97;5444550;26;19933;-75
2024/04/20 08:07:51;;;;;;;;;;;;;;;5.69;67.16;97749.03;5421302;26;19940;-74
2024/04/20 08:10:41;;;;;;;;;;;;;;;5.72;67.17;97753.84;5423855;26;19937;-75
2024/04/20 08:13:31;;;;;;;;;;;;;;;5.74;66.81;97765.16;5429166;26;20453;-74
2024/04/20 08:16:23;;;;;;;;;;;;;;;5.84;66.11;97763.47;5428630;26;19955;-73
2024/04/20 08:19:13;;;;;;;;;;;;;;;5.70;66.11;97766.81;5421168;26;19953;-75
2024/04/20 08:22:03;;;;;;;;;;;;;;;5.84;65.27;97776.94;5448149;26;19929;-75
2024/04/20 08:24:53;;;;;;;;;;;;;;;5.78;65.48;97782.38;5442699;26;19936;-75
2024/04/20 08:27:43;;;;;;;;;;;;;;;5.68;64.98;97781.66;5422633;26;19936;-74
2024/04/20 08:30:33;;;;;;;;;;;;;;;5.83;63.51;97786.13;5447298;26;19933;-76
2024/04/20 08:33:25;;;;;;;;;;;;;;;5.84;63.77;97793.91;5437862;26;19928;-76
2024/04/20 08:36:15;;;;;;;;;;;;;;;5.97;61.86;97804.09;5444433;26;19928;-74
2024/04/20 08:39:05;;;;;;;;;;;;;;;5.99;63.47;97811.88;5463909;26;19929;-82
2024/04/20 08:41:57;;;;;;;;;;;;;;;6.08;62.91;97804.81;5456088;26;19936;-75
2024/04/20 08:44:47;;;;;;;;;;;;;;;6.05;62.28;97808.06;5419425;26;19960;-72
2024/04/20 08:47:37;;;;;;;;;;;;;;;6.06;62.25;97801.56;5454831;26;20103;-73
2024/04/20 08:50:31;;;;;;;;;;;;;;;6.27;60.61;97808.38;5414955;26;19940;-72
2024/04/20 08:53:21;;;;;;;;;;;;;;;6.19;61.28;97811.69;5422588;26;20296;-78
2024/04/20 08:56:11;;;;;;;;;;;;;;;6.23;61.10;97823.53;5438685;26;19928;-76
2024/04/20 08:59:02;;;;;;;;;;;;;;;6.31;61.32;97819.41;5422916;26;20407;-81
2024/04/20 09:01:51;;;;;;;;;;;;;;;6.52;59.01;97825.38;5439475;26;19941;-72
2024/04/20 09:04:42;;;;;;;;;;;;;;;6.49;58.79;97832.16;5402764;26;19937;-77
2024/04/20 09:07:35;;;;;;;;;;;;;;;6.61;58.29;97839.88;5412244;26;19928;-82
2024/04/20 09:10:24;;;;;;;;;;;;;;;6.51;59.20;97845.38;5433552;26;19977;-76
2024/04/20 09:13:15;;;;;;;;;;;;;;;6.61;58.12;97850.66;5447417;26;19936;-75
2024/04/20 09:16:05;;;;;;;;;;;;;;;6.66;58.44;97853.31;5423717;26;19928;-76
2024/04/20 09:18:55;;;;;;;;;;;;;;;6.82;58.45;97853.94;5451083;26;19928;-77
2024/04/20 09:21:50;;;;;;;;;;;;;;;6.76;57.66;97858.56;5430994;26;20047;-72
2024/04/20 09:24:43;;;;;;;;;;;;;;;6.78;58.47;97852.91;5420647;26;19940;-72
2024/04/20 09:27:36;;;;;;;;;;;;;;;6.76;58.23;97863.97;5441945;26;19929;-72
2024/04/20 09:30:26;;;;;;;;;;;;;;;6.96;57.65;97864.84;5428936;26;20304;-71
2024/04/20 09:33:16;;;;;;;;;;;;;;;7.10;57.63;97873.84;5448582;26;19957;-73
2024/04/20 09:36:10;;;;;;;;;;;;;;;7.01;57.70;97875.56;5449663;26;19929;-73
2024/04/20 09:39:01;;;;;;;;;;;;;;;6.99;57.86;97883.97;5435270;26;19929;-72
2024/04/20 09:41:54;;;;;;;;;;;;;;;7.01;57.27;97883.69;5419095;26;19928;-72
2024/04/20 09:44:44;;;;;;;;;;;;;;;6.99;58.17;97896.69;5425611;26;19940;-72
2024/04/20 09:47:36;;;;;;;;;;;;;;;7.03;57.40;97889.59;5448567;26;19935;-74
2024/04/20 09:50:26;;;;;;;;;;;;;;;7.00;58.28;97900.97;5450343;26;19943;-73
2024/04/20 09:53:17;;;;;;;;;;;;;;;6.87;58.44;97888.16;5417803;26;19940;-74
2024/04/20 09:56:07;;;;;;;;;;;;;;;7.07;58.12;97901.44;5423068;26;20054;-72
2024/04/20 09:59:01;;;;;;;;;;;;;;;6.98;58.51;97908.59;5443946;26;19936;-75
2024/04/20 10:01:51;;;;;;;;;;;;;;;7.17;57.59;97906.72;5423009;26;19940;-78
2024/04/20 10:04:44;;;;;;;;;;;;;;;7.20;57.91;97906.16;5413405;26;19955;-76
2024/04/20 10:07:35;;;;;;;;;;;;;;;7.47;57.27;97910.13;5444454;26;19993;-75
2024/04/20 10:10:25;;;;;;;;;;;;;;;7.52;56.31;97900.06;5448862;26;19936;-75
2024/04/20 10:13:16;;;;;;;;;;;;;;;7.58;54.85;97907.00;5417366;26;19928;-78
2024/04/20 10:16:08;;;;;;;;;;;;;;;7.64;55.57;97915.84;5444689;26;19935;-76
2024/04/20 10:18:58;;;;;;;;;;;;;;;7.52;55.91;97912.78;5416640;26;20365;-80
2024/04/20 10:21:48;;;;;;;;;;;;;;;7.77;54.82;97904.28;5418858;26;19936;-76
2024/04/20 10:24:39;;;;;;;;;;;;;;;7.70;54.17;97913.88;5422398;26;19991;-75
2024/04/20 10:27:29;;;;;;;;;;;;;;;7.76;54.01;97913.50;5423058;26;19940;-79
2024/04/20 10:30:22;;;;;;;;;;;;;;;7.88;53.96;97908.47;5443968;26;20292;-74
2024/04/20 10:33:17;;;;;;;;;;;;;;;7.94;53.06;97919.22;5443889;26;19940;-79
2024/04/20 10:36:14;;;;;;;;;;;;;;;8.05;53.44;97917.97;5433224;26;20348;-86
2024/04/20 10:39:05;;;;;;;;;;;;;;;8.32;52.29;97920.75;5463763;26;20001;-86
2024/04/20 10:41:54;;;;;;;;;;;;;;;8.40;51.30;97920.09;5446455;26;19928;-89
2024/04/20 10:44:46;;;;;;;;;;;;;;;8.49;51.31;97914.00;5447094;26;20309;-88
2024/04/20 10:47:36;;;;;;;;;;;;;;;8.61;51.21;97922.44;5427968;26;19932;-87
2024/04/20 10:50:28;;;;;;;;;;;;;;;8.61;51.28;97922.44;5444419;26;19932;-87
2024/04/20 10:53:22;;;;;;;;;;;;;;;8.54;51.62;97922.84;5481724;26;20301;-88
2024/04/20 10:56:13;;;;;;;;;;;;;;;8.40;52.33;97924.72;5416658;26;19932;-88
2024/04/20 10:59:03;;;;;;;;;;;;;;;8.37;54.24;97931.53;5459840;26;19928;-87
2024/04/20 11:01:53;;;;;;;;;;;;;;;8.35;54.51;97930.97;5437536;26;20040;-86
2024/04/20 11:04:45;;;;;;;;;;;;;;;8.14;53.19;97929.69;5440771;26;19939;-75
2024/04/20 11:07:37;;;;;;;;;;;;;;;8.09;53.74;97933.28;5419061;26;19935;-74
2024/04/20 11:10:28;;;;;;;;;;;;;;;8.14;52.41;97940.53;5420374;26;20554;-75
2024/04/20 11:13:21;;;;;;;;;;;;;;;8.09;51.61;97944.09;5413847;26;20356;-73
2024/04/20 11:16:11;;;;;;;;;;;;;;;8.06;53.34;97941.19;5417142;26;19960;-73
2024/04/20 11:19:01;;;;;;;;;;;;;;;7.99;53.72;97938.88;5402743;26;19952;-73
2024/04/20 11:21:51;;;;;;;;;;;;;;;8.29;52.52;97943.00;5415735;26;19928;-73
2024/04/20 11:24:47;;;;;;;;;;;;;;;8.40;51.61;97936.34;5410594;26;19940;-73
2024/04/20 11:27:37;;;;;;;;;;;;;;;8.71;50.85;97935.00;5416073;26;19936;-74
2024/04/20 11:30:27;;;;;;;;;;;;;;;8.66;50.88;97931.28;5447898;26;19940;-73
2024/04/20 11:33:17;;;;;;;;;;;;;;;8.76;51.92;97935.72;5415019;26;19951;-73
2024/04/20 11:36:10;;;;;;;;;;;;;;;8.62;50.46;97934.88;5420771;26;19932;-74
2024/04/20 11:39:07;;;;;;;;;;;;;;;8.67;51.36;97934.81;5439208;26;20233;-74
2024/04/20 11:42:06;;;;;;;;;;;;;;;8.62;51.44;97937.59;5434241;26;19937;-73
2024/04/20 11:44:57;;;;;;;;;;;;;;;8.43;51.24;97942.28;5450500;26;19929;-73
2024/04/20 11:47:47;;;;;;;;;;;;;;;8.07;50.06;97951.72;5412199;26;19997;-73
2024/04/20 11:50:40;;;;;;;;;;;;;;;8.18;47.98;97955.06;5416522;26;19928;-73
2024/04/20 11:56:37;;;;;;;;;;;;;;;8.35;49.05;97955.34;5414237;26;19968;-74
2024/04/20 11:59:30;;;;;;;;;;;;;;;8.60;49.47;97954.16;5442602;26;20063;-74
2024/04/20 12:02:20;;;;;;;;;;;;;;;8.85;50.50;97969.16;5422012;26;19935;-73
2024/04/20 12:05:10;;;;;;;;;;;;;;;8.88;51.19;97957.72;5423354;26;20376;-73
2024/04/20 12:08:00;;;;;;;;;;;;;;;9.34;50.33;97964.97;5421072;26;19929;-74
2024/04/20 12:10:50;;;;;;;;;;;;;;;9.23;49.99;97969.00;5445451;26;19928;-74
2024/04/20 12:13:40;;;;;;;;;;;;;;;9.10;49.76;97972.50;5424368;26;19935;-84
2024/04/20 12:16:33;;;;;;;;;;;;;;;9.06;49.89;97971.50;5443062;26;19928;-89
2024/04/20 12:19:23;;;;;;;;;;;;;;;9.09;51.89;97977.09;5463619;26;20390;-89
2024/04/20 12:22:12;;;;;;;;;;;;;;;8.87;54.19;97985.09;5452031;26;19936;-90
2024/04/20 12:25:03;;;;;;;;;;;;;;;8.66;55.27;97981.94;5439120;26;20272;-76
2024/04/20 12:27:53;;;;;;;;;;;;;;;8.28;54.69;97983.88;5443346;26;20299;-75
2024/04/20 12:30:43;;;;;;;;;;;;;;;8.09;55.81;97990.09;5424055;26;20280;-75
2024/04/20 12:33:35;;;;;;;;;;;;;;;8.16;56.01;97989.75;5452433;26;19944;-73
2024/04/20 12:36:26;;;;;;;;;;;;;;;8.03;54.49;97990.47;5425588;26;19928;-73
2024/04/20 12:39:16;;;;;;;;;;;;;;;8.00;55.62;97993.78;5419157;26;19928;-72
2024/04/20 12:42:06;;;;;;;;;;;;;;;8.04;55.72;97995.63;5442518;26;19997;-72
2024/04/20 12:45:00;;;;;;;;;;;;;;;8.16;55.41;97987.06;5443454;26;19936;-70
2024/04/20 12:47:53;;;;;;;;;;;;;;;8.23;57.55;97989.38;5441023;26;19993;-71
2024/04/20 12:50:46;;;;;;;;;;;;;;;8.28;57.50;97994.72;5436347;26;20470;-73
2024/04/20 12:53:36;;;;;;;;;;;;;;;8.24;55.50;97999.09;5422530;26;19935;-72
2024/04/20 12:56:26;;;;;;;;;;;;;;;8.17;54.66;98002.19;5439292;26;19936;-72
2024/04/20 12:59:19;;;;;;;;;;;;;;;8.34;56.06;97999.75;5418774;26;19940;-71
2024/04/20 13:02:08;;;;;;;;;;;;;;;8.65;53.61;97988.47;5437666;26;20377;-75
2024/04/20 13:04:58;;;;;;;;;;;;;;;8.80;53.19;97990.91;5412004;26;20379;-72
2024/04/20 13:07:51;;;;;;;;;;;;;;;8.87;52.66;97985.91;5420324;26;20370;-72
2024/04/20 13:10:42;;;;;;;;;;;;;;;8.45;53.10;98005.03;5445291;26;19929;-72
2024/04/20 13:13:31;;;;;;;;;;;;;;;8.32;53.87;98015.50;5411027;26;20356;-71
2024/04/20 13:16:22;;;;;;;;;;;;;;;8.03;55.44;98022.94;5447006;26;19940;-74
2024/04/20 13:19:12;;;;;;;;;;;;;;;7.83;55.55;98032.97;5433844;26;19958;-76
2024/04/20 13:22:02;;;;;;;;;;;;;;;7.75;54.29;98036.28;5409737;26;20006;-74
2024/04/20 13:24:55;;;;;;;;;;;;;;;7.59;55.93;98034.88;5425573;26;19936;-90
2024/04/20 13:27:47;;;;;;;;;;;;;;;7.59;57.08;98040.28;5451549;26;19929;-86
2024/04/20 13:30:37;;;;;;;;;;;;;;;7.54;57.76;98051.16;5492248;26;19928;-77
2024/04/20 13:33:30;;;;;;;;;;;;;;;7.58;56.67;98035.97;5413716;26;19936;-72
2024/04/20 13:36:19;;;;;;;;;;;;;;;7.50;56.28;98044.69;5425458;26;20001;-71
2024/04/20 13:39:10;;;;;;;;;;;;;;;7.52;54.61;98037.13;5450910;26;19934;-71
2024/04/20 13:42:03;;;;;;;;;;;;;;;7.54;54.89;98043.03;5448814;26;19928;-76
2024/04/20 13:44:53;;;;;;;;;;;;;;;7.51;54.34;98041.72;5451002;26;19946;-71
2024/04/20 13:47:43;;;;;;;;;;;;;;;7.59;54.94;98040.28;5425033;26;19928;-72
2024/04/20 13:50:38;;;;;;;;;;;;;;;7.72;54.25;98041.47;5440182;26;19979;-71
2024/04/20 13:53:28;;;;;;;;;;;;;;;8.00;53.36;98034.38;5421826;26;19936;-70
2024/04/20 13:56:18;;;;;;;;;;;;;;;8.18;52.50;98033.56;5425745;26;19936;-71
2024/04/20 13:59:13;;;;;;;;;;;;;;;8.33;51.40;98044.16;5444566;26;19955;-70
2024/04/20 14:02:04;;;;;;;;;;;;;;;8.28;51.52;98044.25;5443957;26;20325;-70
2024/04/20 14:04:53;;;;;;;;;;;;;;;8.52;49.77;98043.38;5420714;26;19929;-70
2024/04/20 14:07:44;;;;;;;;;;;;;;;8.71;51.52;98036.03;5446644;26;19944;-71
2024/04/20 14:10:34;;;;;;;;;;;;;;;8.48;55.41;98075.66;5413929;26;19939;-70
2024/04/20 14:13:29;;;;;;;;;;;;;;;7.92;60.14;98097.22;5425597;26;19997;-70
2024/04/20 14:16:22;;;;;;;;;;;;;;;7.69;63.72;98090.72;5424410;26;19928;-71
2024/04/20 14:19:12;;;;;;;;;;;;;;;7.24;65.30;98085.50;5416297;26;20330;-70
2024/04/20 14:22:02;;;;;;;;;;;;;;;7.21;65.77;98072.56;5440358;26;19955;-72
2024/04/20 14:24:52;;;;;;;;;;;;;;;7.13;64.20;98056.97;5413531;26;19935;-71
2024/04/20 14:27:44;;;;;;;;;;;;;;;7.34;62.17;98047.56;5416731;26;21307;-69
2024/04/20 14:30:34;;;;;;;;;;;;;;;7.61;61.55;98049.69;5417970;26;19940;-71
2024/04/20 14:33:27;;;;;;;;;;;;;;;7.78;61.52;98038.44;5430043;26;19947;-73
2024/04/20 14:36:17;;;;;;;;;;;;;;;7.87;60.12;98043.97;5421554;26;20260;-69
2024/04/20 14:39:07;;;;;;;;;;;;;;;8.02;58.72;98041.09;5422513;26;19928;-70
2024/04/20 14:41:57;;;;;;;;;;;;;;;8.09;57.40;98038.00;5442451;26;20052;-70
2024/04/20 14:44:47;;;;;;;;;;;;;;;8.07;57.43;98035.59;5451353;26;19928;-70
2024/04/20 14:47:37;;;;;;;;;;;;;;;7.95;56.06;98034.44;5435767;26;19929;-70
2024/04/20 14:50:30;;;;;;;;;;;;;;;8.01;56.86;98031.34;5446894;26;19936;-70
2024/04/20 14:53:20;;;;;;;;;;;;;;;8.10;59.11;98039.63;5444725;26;19940;-70
2024/04/20 14:56:11;;;;;;;;;;;;;;;8.11;55.57;98042.03;5448346;26;19935;-76
2024/04/20 14:59:01;;;;;;;;;;;;;;;8.11;56.27;98039.34;5439455;26;19928;-71
2024/04/20 15:01:50;;;;;;;;;;;;;;;8.23;56.96;98040.81;5432486;26;19928;-72
2024/04/20 15:04:40;;;;;;;;;;;;;;;8.32;55.53;98042.56;5431207;26;20027;-72